createdAt,value
2018-12-18T00:00:42.426Z,142.07
2018-12-18T00:03:13.788Z,154.10
2018-12-18T00:05:45.403Z,270.07
2018-12-18T00:08:15.004Z,154.87
2018-12-18T00:10:49.327Z,154.30
2018-12-18T00:13:18.846Z,158.07
2018-12-18T00:15:48.367Z,152.43
2018-12-18T00:18:17.884Z,157.50
2018-12-18T00:20:47.424Z,175.63
2018-12-18T00:23:16.555Z,348.17
2018-12-18T00:25:45.990Z,267.70
2018-12-18T00:28:15.575Z,202.77
2018-12-18T00:30:45.079Z,171.07
2018-12-18T00:33:14.622Z,186.27
2018-12-18T00:35:44.175Z,199.20
2018-12-18T00:38:13.675Z,177.10
2018-12-18T00:40:43.195Z,162.13
2018-12-18T00:43:12.705Z,165.47
2018-12-18T00:45:42.630Z,173.73
2018-12-18T00:48:12.131Z,167.13
2018-12-18T00:50:41.634Z,169.73
2018-12-18T00:53:11.175Z,159.43
2018-12-18T00:55:40.679Z,181.60
2018-12-18T00:58:10.225Z,182.13
2018-12-18T01:00:39.990Z,167.30
2018-12-18T01:03:09.494Z,172.90
2018-12-18T01:05:39.035Z,180.57
2018-12-18T01:08:08.547Z,185.13
2018-12-18T01:10:38.035Z,185.33
2018-12-18T01:13:07.564Z,188.23
2018-12-18T01:15:37.062Z,203.63
2018-12-18T01:18:07.626Z,195.87
2018-12-18T01:20:37.121Z,181.00
2018-12-18T01:23:06.622Z,180.03
2018-12-18T01:25:36.175Z,198.17
2018-12-18T01:28:05.670Z,201.90
2018-12-18T01:30:35.306Z,182.37
2018-12-18T01:33:04.795Z,178.87
2018-12-18T01:35:34.290Z,182.63
2018-12-18T01:38:03.802Z,192.10
2018-12-18T01:40:33.678Z,166.43
2018-12-18T01:43:03.187Z,187.17
2018-12-18T01:45:32.686Z,198.57
2018-12-18T01:48:02.204Z,185.17
2018-12-18T01:50:31.702Z,175.43
2018-12-18T01:53:01.215Z,189.17
2018-12-18T01:55:30.720Z,184.57
2018-12-18T01:58:00.251Z,192.87
2018-12-18T02:00:30.866Z,168.33
2018-12-18T02:03:00.410Z,177.93
2018-12-18T02:05:29.911Z,179.57
2018-12-18T02:07:59.406Z,193.73
2018-12-18T02:10:28.934Z,188.70
2018-12-18T02:12:58.462Z,178.27
2018-12-18T02:15:27.967Z,167.87
2018-12-18T02:17:57.520Z,182.13
2018-12-18T02:20:27.286Z,174.77
2018-12-18T02:22:56.418Z,174.37
2018-12-18T02:25:25.859Z,166.17
2018-12-18T02:27:55.405Z,175.20
2018-12-18T02:30:24.920Z,178.43
2018-12-18T02:32:54.446Z,172.30
2018-12-18T02:35:23.982Z,176.70
2018-12-18T02:37:53.570Z,157.33
2018-12-18T02:40:23.079Z,168.83
2018-12-18T02:42:52.603Z,162.17
2018-12-18T02:45:22.126Z,166.23
2018-12-18T02:47:51.634Z,165.63
2018-12-18T02:50:21.133Z,160.37
2018-12-18T02:52:50.646Z,155.13
2018-12-18T02:55:20.160Z,172.83
2018-12-18T02:57:49.691Z,162.47
2018-12-18T03:00:19.447Z,165.73
2018-12-18T03:02:48.947Z,155.70
2018-12-18T03:05:18.460Z,159.40
2018-12-18T03:07:47.999Z,166.53
2018-12-18T03:10:17.509Z,168.70
2018-12-18T03:12:47.022Z,179.07
2018-12-18T03:15:16.926Z,179.20
2018-12-18T03:17:46.435Z,172.60
2018-12-18T03:20:15.987Z,168.70
2018-12-18T03:22:45.559Z,170.30
2018-12-18T03:25:15.099Z,154.77
2018-12-18T03:27:44.615Z,162.07
2018-12-18T03:30:14.175Z,161.00
2018-12-18T03:32:48.888Z,164.00
2018-12-18T03:35:18.658Z,166.97
2018-12-18T03:37:48.166Z,164.97
2018-12-18T03:40:17.698Z,153.20
2018-12-18T03:42:47.201Z,170.13
2018-12-18T03:45:16.717Z,177.30
2018-12-18T03:47:46.254Z,168.27
2018-12-18T03:50:15.755Z,165.00
2018-12-18T03:52:45.266Z,164.37
2018-12-18T03:55:14.788Z,162.70
2018-12-18T03:57:44.297Z,152.00
2018-12-18T04:00:14.286Z,161.30
2018-12-18T04:02:43.786Z,156.47
2018-12-18T04:05:13.771Z,171.80
2018-12-18T04:07:43.275Z,169.93
2018-12-18T04:10:12.847Z,168.93
2018-12-18T04:12:42.347Z,160.67
2018-12-18T04:15:11.871Z,166.30
2018-12-18T04:17:41.395Z,171.40
2018-12-18T04:20:10.910Z,150.10
2018-12-18T04:22:40.409Z,159.93
2018-12-18T04:25:09.981Z,158.67
2018-12-18T04:27:39.498Z,150.30
2018-12-18T04:30:09.483Z,159.83
2018-12-18T04:32:39.011Z,152.27
2018-12-18T04:35:10.674Z,158.57
2018-12-18T04:37:40.158Z,152.43
2018-12-18T04:40:09.690Z,147.57
2018-12-18T04:42:39.206Z,161.40
2018-12-18T04:45:08.803Z,157.63
2018-12-18T04:47:38.319Z,149.67
2018-12-18T04:50:08.271Z,155.27
2018-12-18T04:52:37.806Z,139.07
2018-12-18T04:55:07.320Z,146.93
2018-12-18T04:57:36.814Z,154.03
2018-12-18T05:00:08.342Z,152.27
2018-12-18T05:02:37.883Z,148.63
2018-12-18T05:05:07.867Z,158.23
2018-12-18T05:07:37.366Z,170.37
2018-12-18T05:10:07.359Z,191.07
2018-12-18T05:12:36.879Z,168.63
2018-12-18T05:15:06.446Z,179.87
2018-12-18T05:17:35.966Z,176.07
2018-12-18T05:20:06.059Z,167.63
2018-12-18T05:22:35.551Z,168.27
2018-12-18T05:25:05.086Z,153.67
2018-12-18T05:27:34.654Z,157.47
2018-12-18T05:30:06.235Z,153.67
2018-12-18T05:32:35.771Z,173.23
2018-12-18T05:35:06.066Z,164.27
2018-12-18T05:37:35.570Z,157.77
2018-12-18T05:40:05.975Z,195.27
2018-12-18T05:42:35.474Z,188.03
2018-12-18T05:45:05.432Z,179.07
2018-12-18T05:47:34.934Z,178.07
2018-12-18T05:50:04.994Z,198.07
2018-12-18T05:52:34.775Z,162.43
2018-12-18T05:55:04.800Z,163.63
2018-12-18T05:57:34.488Z,160.77
2018-12-18T06:00:05.050Z,161.70
2018-12-18T06:02:34.638Z,158.77
2018-12-18T06:05:04.783Z,154.03
2018-12-18T06:07:34.303Z,150.30
2018-12-18T06:10:04.215Z,162.57
2018-12-18T06:12:33.627Z,177.23
2018-12-18T06:15:03.623Z,173.40
2018-12-18T06:17:33.116Z,155.83
2018-12-18T06:20:02.690Z,156.00
2018-12-18T06:22:32.438Z,169.80
2018-12-18T06:25:17.282Z,176.30
2018-12-18T06:27:47.061Z,159.13
2018-12-18T06:30:17.448Z,168.63
2018-12-18T06:32:47.170Z,165.57
2018-12-18T06:35:16.678Z,168.07
2018-12-18T06:37:46.250Z,173.30
2018-12-18T06:40:15.865Z,176.27
2018-12-18T06:42:45.411Z,168.40
2018-12-18T06:45:14.927Z,182.17
2018-12-18T06:47:44.544Z,179.27
2018-12-18T06:50:14.119Z,175.70
2018-12-18T06:52:43.643Z,180.57
2018-12-18T06:55:13.643Z,172.17
2018-12-18T06:57:43.199Z,187.40
2018-12-18T07:00:13.049Z,182.47
2018-12-18T07:02:42.572Z,162.10
2018-12-18T07:05:16.700Z,165.70
2018-12-18T07:07:43.600Z,155.67
2018-12-18T07:10:13.578Z,153.83
2018-12-18T07:12:43.062Z,174.60
2018-12-18T07:15:12.603Z,173.20
2018-12-18T07:17:42.094Z,162.70
2018-12-18T07:20:11.626Z,168.23
2018-12-18T07:22:41.136Z,169.03
2018-12-18T07:25:10.635Z,191.93
2018-12-18T07:27:40.136Z,156.00
2018-12-18T07:30:10.151Z,155.33
2018-12-18T07:32:39.285Z,155.07
2018-12-18T07:35:08.708Z,164.50
2018-12-18T07:37:38.202Z,159.40
2018-12-18T07:40:08.238Z,150.23
2018-12-18T07:42:37.733Z,161.03
2018-12-18T07:45:07.288Z,172.00
2018-12-18T07:47:36.821Z,146.73
2018-12-18T07:50:06.818Z,146.20
2018-12-18T07:52:36.315Z,160.77
2018-12-18T07:55:05.834Z,170.93
2018-12-18T07:57:35.337Z,149.33
2018-12-18T08:00:05.904Z,144.67
2018-12-18T08:02:35.398Z,159.50
2018-12-18T08:05:05.367Z,164.70
2018-12-18T08:07:34.876Z,167.40
2018-12-18T08:10:05.542Z,172.23
2018-12-18T08:12:35.037Z,157.60
2018-12-18T08:15:05.223Z,164.33
2018-12-18T08:17:34.750Z,168.30
2018-12-18T08:20:04.755Z,153.70
2018-12-18T08:22:35.366Z,147.33
2018-12-18T08:25:06.250Z,150.70
2018-12-18T08:27:35.798Z,156.57
2018-12-18T08:30:06.942Z,158.17
2018-12-18T08:32:36.465Z,156.00
2018-12-18T08:35:06.894Z,144.57
2018-12-18T08:37:36.443Z,156.17
2018-12-18T08:40:07.178Z,162.07
2018-12-18T08:42:36.710Z,153.97
2018-12-18T08:45:09.370Z,161.50
2018-12-18T08:47:38.911Z,169.50
2018-12-18T08:50:09.658Z,171.47
2018-12-18T08:52:39.182Z,163.90
2018-12-18T08:55:08.742Z,157.07
2018-12-18T08:57:38.232Z,158.30
2018-12-18T09:00:09.743Z,167.07
2018-12-18T09:02:39.244Z,162.63
2018-12-18T09:05:08.795Z,173.23
2018-12-18T09:07:38.303Z,155.63
2018-12-18T09:10:09.754Z,176.20
2018-12-18T09:12:39.279Z,176.30
2018-12-18T09:15:15.149Z,175.83
2018-12-18T09:17:48.162Z,198.03
2018-12-18T09:20:17.699Z,222.47
2018-12-18T09:22:47.758Z,174.37
2018-12-18T09:25:17.270Z,197.07
2018-12-18T09:27:46.794Z,163.80
2018-12-18T09:30:16.324Z,150.43
2018-12-18T09:32:45.842Z,145.93
2018-12-18T09:35:15.350Z,153.70
2018-12-18T09:37:44.907Z,136.20
2018-12-18T09:40:16.446Z,148.53
2018-12-18T09:42:51.361Z,150.63
2018-12-18T09:45:20.963Z,147.93
2018-12-18T09:47:50.459Z,147.63
2018-12-18T09:50:19.971Z,142.83
2018-12-18T09:52:49.478Z,172.47
2018-12-18T09:55:19.010Z,222.43
2018-12-18T09:57:53.874Z,185.20
2018-12-18T10:00:23.494Z,157.13
2018-12-18T10:02:53.010Z,166.27
2018-12-18T10:05:22.543Z,146.57
2018-12-18T10:07:53.143Z,163.30
2018-12-18T10:10:22.651Z,155.27
2018-12-18T10:12:55.530Z,157.00
2018-12-18T10:15:26.053Z,149.97
2018-12-18T10:17:55.554Z,150.83
2018-12-18T10:20:25.059Z,157.30
2018-12-18T10:22:55.586Z,171.53
2018-12-18T10:25:25.086Z,169.00
2018-12-18T10:27:54.614Z,165.53
2018-12-18T10:30:24.114Z,180.00
2018-12-18T10:32:53.614Z,186.60
2018-12-18T10:35:23.116Z,161.03
2018-12-18T10:37:52.651Z,172.43
2018-12-18T10:40:22.192Z,173.17
2018-12-18T10:42:51.687Z,171.30
2018-12-18T10:45:21.960Z,190.93
2018-12-18T10:47:51.503Z,176.13
2018-12-18T10:50:21.030Z,153.33
2018-12-18T10:52:50.527Z,163.13
2018-12-18T10:55:20.034Z,168.03
2018-12-18T10:57:49.561Z,170.97
2018-12-18T11:00:24.706Z,151.13
2018-12-18T11:02:54.259Z,148.87
2018-12-18T11:05:23.761Z,173.87
2018-12-18T11:07:53.258Z,172.17
2018-12-18T11:10:22.768Z,157.07
2018-12-18T11:12:57.479Z,166.57
2018-12-18T11:15:27.014Z,184.93
2018-12-18T11:17:56.791Z,237.93
2018-12-18T11:20:26.319Z,310.90
2018-12-18T11:22:55.827Z,265.23
2018-12-18T11:25:25.337Z,302.27
2018-12-18T11:27:54.858Z,264.37
2018-12-18T11:30:24.362Z,262.63
2018-12-18T11:32:53.866Z,224.07
2018-12-18T11:35:23.428Z,245.83
2018-12-18T11:37:52.935Z,226.50
2018-12-18T11:40:22.486Z,253.13
2018-12-18T11:42:52.003Z,243.73
2018-12-18T11:45:21.498Z,247.60
2018-12-18T11:47:51.018Z,232.03
2018-12-18T11:50:20.522Z,198.30
2018-12-18T11:52:50.027Z,208.77
2018-12-18T11:55:19.529Z,202.27
2018-12-18T11:57:49.034Z,196.67
2018-12-18T12:00:18.555Z,181.73
2018-12-18T12:02:48.067Z,180.60
2018-12-18T12:05:19.346Z,177.87
2018-12-18T12:07:48.854Z,167.13
2018-12-18T12:10:18.347Z,177.80
2018-12-18T12:12:47.872Z,179.13
2018-12-18T12:15:17.374Z,165.87
2018-12-18T12:17:46.557Z,175.70
2018-12-18T12:20:15.994Z,193.63
2018-12-18T12:22:45.482Z,204.90
2018-12-18T12:25:15.038Z,188.90
2018-12-18T12:27:49.548Z,206.70
2018-12-18T12:30:19.056Z,191.07
2018-12-18T12:32:48.593Z,185.23
2018-12-18T12:35:18.103Z,194.90
2018-12-18T12:37:47.599Z,230.03
2018-12-18T12:40:17.139Z,221.73
2018-12-18T12:42:46.710Z,194.10
2018-12-18T12:45:16.248Z,178.57
2018-12-18T12:47:49.167Z,201.23
2018-12-18T12:50:18.671Z,192.93
2018-12-18T12:52:48.406Z,200.80
2018-12-18T12:55:17.946Z,206.07
2018-12-18T12:57:47.453Z,201.13
2018-12-18T13:00:16.626Z,204.20
2018-12-18T13:02:46.092Z,176.57
2018-12-18T13:05:15.602Z,179.40
2018-12-18T13:07:45.095Z,184.93
2018-12-18T13:10:14.637Z,168.50
2018-12-18T13:12:44.142Z,175.20
2018-12-18T13:15:13.646Z,186.10
2018-12-18T13:17:43.151Z,199.10
2018-12-18T13:20:12.662Z,192.30
2018-12-18T13:22:43.724Z,176.03
2018-12-18T13:25:13.591Z,159.33
2018-12-18T13:27:43.079Z,177.93
2018-12-18T13:30:12.599Z,180.97
2018-12-18T13:32:42.135Z,195.27
2018-12-18T13:35:12.008Z,167.37
2018-12-18T13:37:41.507Z,165.90
2018-12-18T13:40:11.057Z,177.70
2018-12-18T13:42:40.554Z,184.03
2018-12-18T13:45:10.051Z,183.53
2018-12-18T13:47:39.570Z,170.37
2018-12-18T13:50:09.100Z,173.90
2018-12-18T13:52:38.620Z,185.30
2018-12-18T13:55:08.162Z,180.07
2018-12-18T13:57:37.662Z,193.43
2018-12-18T14:00:08.236Z,194.40
2018-12-18T14:02:37.948Z,186.27
2018-12-18T14:05:07.490Z,190.30
2018-12-18T14:07:36.627Z,184.67
2018-12-18T14:10:07.554Z,216.50
2018-12-18T14:12:36.731Z,224.10
2018-12-18T14:15:07.022Z,216.90
2018-12-18T14:17:36.559Z,222.67
2018-12-18T14:20:06.908Z,234.43
2018-12-18T14:22:36.422Z,262.93
2018-12-18T14:25:05.970Z,279.97
2018-12-18T14:27:35.466Z,261.07
2018-12-18T14:30:06.122Z,271.60
2018-12-18T14:32:35.629Z,276.40
2018-12-18T14:35:05.196Z,231.00
2018-12-18T14:37:34.718Z,197.27
2018-12-18T14:40:04.755Z,247.03
2018-12-18T14:42:34.324Z,293.57
2018-12-18T14:45:04.341Z,453.30
2018-12-18T14:47:33.907Z,644.60
2018-12-18T14:50:05.079Z,554.17
2018-12-18T14:52:34.593Z,529.47
2018-12-18T14:55:04.267Z,358.33
2018-12-18T14:57:33.771Z,275.77
2018-12-18T15:00:04.239Z,266.53
2018-12-18T15:02:33.743Z,209.67
2018-12-18T15:05:03.270Z,218.57
2018-12-18T15:07:32.837Z,244.63
2018-12-18T15:10:02.375Z,215.23
2018-12-18T15:12:31.885Z,190.57
2018-12-18T15:15:01.454Z,178.97
2018-12-18T15:17:30.954Z,162.47
2018-12-18T15:20:00.458Z,185.97
2018-12-18T15:22:29.988Z,179.97
2018-12-18T15:24:59.490Z,185.87
2018-12-18T15:27:28.634Z,188.23
2018-12-18T15:29:58.078Z,164.97
2018-12-18T19:56:14.875Z,210.83
2018-12-18T19:58:44.336Z,208.97
2018-12-18T20:01:13.893Z,161.93
2018-12-18T20:03:43.438Z,138.63
2018-12-18T20:06:12.974Z,144.30
2018-12-18T20:08:42.498Z,280.20
2018-12-18T20:11:12.227Z,611.63
2018-12-18T20:13:41.739Z,333.87
2018-12-18T20:16:11.354Z,181.87
2018-12-18T20:18:40.548Z,155.70
2018-12-18T20:21:11.421Z,155.27
2018-12-18T20:23:41.395Z,153.80
2018-12-18T20:26:11.942Z,168.07
2018-12-18T20:28:41.480Z,193.60
2018-12-18T20:31:11.007Z,208.40
2018-12-18T20:33:40.499Z,232.67
2018-12-18T20:36:10.023Z,259.80
2018-12-18T20:38:39.186Z,236.07
2018-12-18T20:41:08.598Z,191.50
2018-12-18T20:43:38.131Z,227.33
2018-12-18T20:46:07.638Z,315.73
2018-12-18T20:48:37.147Z,190.77
2018-12-18T20:51:06.673Z,169.23
2018-12-18T20:53:37.978Z,179.67
2018-12-18T20:56:07.516Z,176.93
2018-12-18T20:58:37.015Z,169.70
2018-12-18T21:01:06.523Z,150.03
2018-12-18T21:03:36.058Z,156.10
2018-12-18T21:06:05.226Z,194.07
2018-12-18T21:08:34.383Z,162.07
2018-12-18T21:11:03.454Z,164.50
2018-12-18T21:13:32.891Z,160.27
2018-12-18T21:16:03.279Z,181.87
2018-12-18T21:18:33.260Z,176.30
2018-12-18T21:21:02.762Z,158.77
2018-12-18T21:23:32.109Z,144.30
2018-12-18T21:26:04.975Z,152.60
2018-12-18T21:28:38.971Z,153.10
2018-12-18T21:31:08.716Z,151.40
2018-12-18T21:33:38.234Z,179.07
2018-12-18T21:36:07.812Z,204.77
2018-12-18T21:38:37.615Z,172.67
2018-12-18T21:41:07.207Z,164.37
2018-12-18T21:43:36.380Z,149.03
2018-12-18T21:46:05.956Z,151.17
2018-12-18T21:48:36.057Z,135.73
2018-12-18T21:51:05.753Z,143.50
2018-12-18T21:53:35.412Z,138.77
2018-12-18T21:56:05.977Z,141.23
2018-12-18T21:58:35.593Z,139.87
2018-12-18T22:01:05.085Z,143.73
2018-12-18T22:03:34.723Z,149.03
2018-12-18T22:06:04.229Z,145.30
2018-12-18T22:08:36.874Z,154.50
2018-12-18T22:11:05.279Z,238.30
2018-12-18T22:13:35.330Z,322.53
2018-12-18T22:16:04.841Z,233.10
2018-12-18T22:18:34.391Z,167.13
2018-12-18T22:21:03.905Z,160.50
2018-12-18T22:23:33.545Z,166.00
2018-12-18T22:26:03.267Z,170.77
2018-12-18T22:28:34.680Z,234.57
2018-12-18T22:31:13.006Z,288.97
2018-12-18T22:33:46.842Z,179.37
2018-12-18T22:36:16.443Z,153.27
2018-12-18T22:38:46.961Z,145.57
2018-12-18T22:41:16.467Z,169.27
2018-12-18T22:43:45.987Z,158.97
2018-12-18T22:46:16.218Z,155.73
2018-12-18T22:48:45.819Z,185.13
2018-12-18T22:51:15.307Z,215.53
2018-12-18T22:53:44.906Z,313.27
2018-12-18T22:56:14.447Z,264.83
2018-12-18T22:58:43.953Z,273.93
2018-12-18T23:01:18.102Z,221.70
2018-12-18T23:03:47.622Z,200.80
2018-12-18T23:06:17.386Z,271.60
2018-12-18T23:08:50.182Z,301.27
2018-12-18T23:11:18.441Z,172.97
2018-12-18T23:13:47.987Z,149.20
2018-12-18T23:16:17.155Z,138.17
2018-12-18T23:18:46.595Z,138.07
2018-12-18T23:21:16.531Z,152.93
2018-12-18T23:23:46.037Z,488.33
2018-12-18T23:26:15.583Z,410.27
2018-12-18T23:28:45.107Z,171.57
2018-12-18T23:31:14.610Z,134.13
2018-12-18T23:33:44.102Z,146.73
2018-12-18T23:36:13.599Z,136.13
2018-12-18T23:38:43.192Z,140.47
2018-12-18T23:41:12.695Z,147.50
2018-12-18T23:43:42.186Z,187.97
2018-12-18T23:46:11.683Z,258.60
2018-12-18T23:48:41.171Z,259.27
2018-12-18T23:51:10.675Z,194.67
2018-12-18T23:53:40.178Z,163.60
2018-12-18T23:56:09.726Z,172.10
2018-12-18T23:58:39.223Z,170.03
